createdAt,value
2023-05-05T00:02:54.606Z,40.41
2023-05-05T00:08:14.478Z,40.47
2023-05-05T00:13:06.921Z,40.85
2023-05-05T00:18:06.840Z,41.07
2023-05-05T00:23:06.752Z,41.23
2023-05-05T00:28:06.656Z,41.45
2023-05-05T00:33:06.658Z,41.71
2023-05-05T00:38:06.520Z,41.85
2023-05-05T00:43:06.460Z,41.97
2023-05-05T00:48:06.463Z,42.25
2023-05-05T00:53:06.355Z,42.46
2023-05-05T00:58:06.289Z,42.52
2023-05-05T01:03:06.317Z,42.59
2023-05-05T01:08:06.128Z,42.84
2023-05-05T01:13:06.154Z,43.04
2023-05-05T01:18:06.040Z,43.17
2023-05-05T01:23:06.032Z,43.26
2023-05-05T01:28:05.864Z,43.35
2023-05-05T01:33:05.815Z,43.42
2023-05-05T01:38:05.758Z,43.53
2023-05-05T01:43:05.669Z,43.67
2023-05-05T01:48:05.647Z,43.81
2023-05-05T01:53:05.573Z,43.95
2023-05-05T01:58:05.459Z,44.06
2023-05-05T02:03:05.473Z,44.23
2023-05-05T02:08:05.330Z,44.40
2023-05-05T02:13:05.334Z,44.59
2023-05-05T02:18:05.348Z,44.64
2023-05-05T02:23:05.149Z,44.71
2023-05-05T02:28:05.062Z,44.78
2023-05-05T02:33:05.041Z,44.85
2023-05-05T02:38:04.955Z,44.90
2023-05-05T02:43:05.013Z,44.99
2023-05-05T02:48:04.833Z,45.12
2023-05-05T02:53:04.735Z,45.33
2023-05-05T02:58:04.684Z,45.48
2023-05-05T03:03:04.648Z,45.68
2023-05-05T03:08:04.544Z,45.83
2023-05-05T03:13:04.516Z,46.01
2023-05-05T03:18:04.420Z,46.19
2023-05-05T03:23:04.349Z,46.33
2023-05-05T03:28:04.270Z,46.40
2023-05-05T03:33:04.253Z,46.51
2023-05-05T03:38:04.127Z,46.62
2023-05-05T03:43:04.081Z,46.64
2023-05-05T03:48:04.054Z,46.65
2023-05-05T03:53:03.978Z,46.64
2023-05-05T03:58:03.880Z,46.67
2023-05-05T04:03:04.023Z,46.75
2023-05-05T04:08:03.740Z,46.85
2023-05-05T04:13:03.732Z,46.92
2023-05-05T04:18:18.211Z,46.81
2023-05-05T04:23:10.574Z,47.05
2023-05-05T04:28:10.716Z,47.10
2023-05-05T04:33:10.464Z,47.25
2023-05-05T04:38:10.398Z,47.25
2023-05-05T04:43:10.328Z,47.18
2023-05-05T04:48:10.334Z,47.01
2023-05-05T04:53:10.200Z,46.83
2023-05-05T04:58:10.130Z,46.73
2023-05-05T05:03:10.173Z,46.52
2023-05-05T05:08:09.997Z,46.28
2023-05-05T05:13:12.424Z,45.98
2023-05-05T05:18:09.870Z,45.37
2023-05-05T05:23:09.983Z,45.21
2023-05-05T05:28:10.998Z,45.29
2023-05-05T05:33:09.693Z,45.40
2023-05-05T05:38:09.568Z,45.41
2023-05-05T05:43:09.531Z,45.53
2023-05-05T05:48:09.570Z,45.68
2023-05-05T05:53:09.383Z,45.34
2023-05-05T05:58:09.330Z,44.70
2023-05-05T06:03:09.395Z,44.11
2023-05-05T06:08:09.183Z,44.00
2023-05-05T06:13:09.226Z,43.55
2023-05-05T06:18:09.101Z,43.11
2023-05-05T06:23:08.977Z,43.70
2023-05-05T06:28:08.915Z,43.15
2023-05-05T06:33:09.044Z,43.46
2023-05-05T06:38:08.800Z,42.50
2023-05-05T06:43:08.721Z,38.03
2023-05-05T06:48:08.684Z,34.69
2023-05-05T06:53:08.585Z,30.39
2023-05-05T06:58:08.536Z,31.49
2023-05-05T07:03:08.535Z,30.85
2023-05-05T07:08:09.091Z,30.36
2023-05-05T07:13:08.425Z,27.24
2023-05-05T07:18:08.310Z,27.48
2023-05-05T07:23:08.590Z,29.91
2023-05-05T07:28:08.152Z,30.36
2023-05-05T07:33:08.152Z,31.71
2023-05-05T07:38:08.802Z,32.70
2023-05-05T07:43:07.955Z,33.40
2023-05-05T07:48:07.952Z,33.07
2023-05-05T07:53:14.578Z,31.93
2023-05-05T07:58:08.775Z,30.47
2023-05-05T08:03:10.704Z,30.06
2023-05-05T08:08:07.645Z,29.83
2023-05-05T08:13:07.564Z,29.56
2023-05-05T08:18:07.654Z,29.97
2023-05-05T08:23:31.163Z,29.51
2023-05-05T08:28:23.610Z,29.66
2023-05-05T08:33:23.618Z,29.92
2023-05-05T08:38:23.459Z,30.07
2023-05-05T08:43:23.410Z,29.97
2023-05-05T08:48:23.331Z,29.29
2023-05-05T08:53:23.263Z,29.38
2023-05-05T08:58:23.190Z,29.27
2023-05-05T09:03:23.165Z,29.15
2023-05-05T09:08:23.074Z,28.88
2023-05-05T09:13:23.004Z,29.16
2023-05-05T09:18:22.922Z,28.44
2023-05-05T09:23:22.891Z,27.55
2023-05-05T09:28:22.789Z,27.00
2023-05-05T09:33:22.783Z,26.45
2023-05-05T09:38:22.680Z,26.08
2023-05-05T09:43:23.420Z,24.90
2023-05-05T09:48:22.678Z,24.35
2023-05-05T09:53:22.490Z,23.31
2023-05-05T09:58:22.524Z,22.50
2023-05-05T10:03:22.402Z,22.23
2023-05-05T10:08:22.299Z,22.37
2023-05-05T10:13:22.222Z,21.56
2023-05-05T10:18:22.303Z,21.41
2023-05-05T10:23:22.106Z,21.28
2023-05-05T10:28:22.048Z,20.67
2023-05-05T10:38:22.731Z,19.95
2023-05-05T10:43:21.870Z,20.89
2023-05-05T10:48:21.815Z,20.76
2023-05-05T10:53:21.737Z,20.83
2023-05-05T10:58:21.675Z,20.91
2023-05-05T11:03:21.730Z,20.10
2023-05-05T11:08:21.540Z,19.82
2023-05-05T11:13:21.631Z,20.43
2023-05-05T11:18:21.420Z,20.53
2023-05-05T11:23:21.340Z,20.37
2023-05-05T11:28:21.275Z,20.01
2023-05-05T11:33:21.212Z,19.65
2023-05-05T11:38:21.164Z,20.22
2023-05-05T11:43:21.167Z,20.03
2023-05-05T11:48:21.085Z,20.30
2023-05-05T11:53:20.970Z,20.18
2023-05-05T11:58:20.869Z,19.94
2023-05-05T12:03:20.986Z,19.76
2023-05-05T12:08:20.751Z,21.32
2023-05-05T12:13:20.780Z,22.41
2023-05-05T12:18:20.598Z,24.18
2023-05-05T12:23:20.580Z,25.22
2023-05-05T12:28:20.475Z,26.16
2023-05-05T12:33:20.417Z,27.30
2023-05-05T12:38:21.264Z,28.41
2023-05-05T12:43:20.430Z,30.05
2023-05-05T12:48:20.209Z,33.41
2023-05-05T12:53:20.155Z,33.86
2023-05-05T12:58:20.071Z,34.31
2023-05-05T13:03:20.215Z,34.45
2023-05-05T13:08:19.983Z,34.21
2023-05-05T13:13:19.968Z,34.93
2023-05-05T13:18:19.823Z,35.03
2023-05-05T13:23:19.779Z,35.33
2023-05-05T13:28:19.693Z,36.25
2023-05-05T13:33:19.645Z,37.02
2023-05-05T13:38:19.574Z,37.68
2023-05-05T13:43:19.512Z,38.50
2023-05-05T13:48:19.426Z,39.36
2023-05-05T13:53:19.388Z,40.23
2023-05-05T13:58:19.318Z,40.60
2023-05-05T14:03:19.324Z,40.82
2023-05-05T14:08:19.222Z,41.27
2023-05-05T14:13:19.246Z,41.33
2023-05-05T14:18:19.037Z,41.14
2023-05-05T14:23:19.003Z,41.17
2023-05-05T14:28:18.907Z,41.27
2023-05-05T14:33:18.870Z,40.92
2023-05-05T14:38:18.813Z,40.38
2023-05-05T14:43:18.705Z,40.54
2023-05-05T14:48:18.675Z,40.98
2023-05-05T14:53:18.721Z,41.43
2023-05-05T14:58:18.528Z,41.79
2023-05-05T15:03:18.607Z,41.76
2023-05-05T15:08:18.429Z,41.55
2023-05-05T15:13:18.381Z,41.68
2023-05-05T15:18:18.295Z,42.26
2023-05-05T15:23:18.217Z,42.44
2023-05-05T15:28:18.122Z,42.55
2023-05-05T15:33:18.077Z,42.49
2023-05-05T15:38:18.053Z,42.81
2023-05-05T15:43:17.925Z,43.08
2023-05-05T15:48:17.844Z,43.24
2023-05-05T15:53:17.854Z,42.79
2023-05-05T15:58:17.742Z,42.41
2023-05-05T16:03:17.836Z,42.09
2023-05-05T16:08:17.646Z,42.23
2023-05-05T16:13:17.612Z,42.25
2023-05-05T16:18:17.487Z,42.31
2023-05-05T16:23:17.430Z,42.04
2023-05-05T16:28:17.298Z,42.01
2023-05-05T16:33:17.306Z,42.37
2023-05-05T16:38:17.164Z,42.31
2023-05-05T16:43:17.139Z,42.44
2023-05-05T16:48:17.044Z,42.36
2023-05-05T16:53:17.271Z,42.33
2023-05-05T16:58:16.890Z,42.52
2023-05-05T17:03:16.905Z,42.93
2023-05-05T17:08:16.824Z,43.29
2023-05-05T17:13:16.824Z,43.68
2023-05-05T17:18:16.633Z,44.24
2023-05-05T17:23:16.612Z,44.63
2023-05-05T17:28:16.532Z,44.53
2023-05-05T17:33:16.456Z,44.65
2023-05-05T17:38:16.362Z,44.71
2023-05-05T17:43:16.300Z,44.82
2023-05-05T17:48:16.286Z,45.08
2023-05-05T17:53:16.200Z,45.16
2023-05-05T17:58:16.140Z,41.88
2023-05-05T18:03:16.227Z,41.39
2023-05-05T18:08:15.994Z,42.54
2023-05-05T18:13:16.003Z,44.18
2023-05-05T18:18:15.851Z,44.96
2023-05-05T18:23:15.815Z,45.52
2023-05-05T18:28:15.749Z,46.06
2023-05-05T18:33:15.685Z,46.50
2023-05-05T18:38:15.621Z,46.88
2023-05-05T18:43:15.526Z,47.26
2023-05-05T18:48:15.475Z,47.44
2023-05-05T18:53:15.753Z,47.68
2023-05-05T18:58:15.316Z,48.11
2023-05-05T19:03:15.245Z,48.66
2023-05-05T19:08:15.263Z,49.55
2023-05-05T19:13:15.201Z,50.23
2023-05-05T19:18:15.061Z,50.60
2023-05-05T19:23:14.990Z,50.92
2023-05-05T19:28:14.918Z,51.29
2023-05-05T19:33:14.971Z,51.48
2023-05-05T19:38:14.811Z,51.44
2023-05-05T19:43:14.723Z,52.04
2023-05-05T19:48:14.679Z,52.06
2023-05-05T19:53:14.630Z,52.15
2023-05-05T19:58:14.899Z,52.11
2023-05-05T20:03:14.562Z,52.09
2023-05-05T20:08:14.403Z,51.96
2023-05-05T20:13:14.372Z,51.98
2023-05-05T20:18:14.290Z,51.95
2023-05-05T20:23:14.175Z,51.94
2023-05-05T20:28:14.249Z,52.02
2023-05-05T20:33:14.068Z,52.12
2023-05-05T20:38:13.990Z,52.28
2023-05-05T20:43:13.953Z,52.44
2023-05-05T20:48:13.852Z,52.56
2023-05-05T20:53:13.833Z,52.74
2023-05-05T20:58:13.748Z,52.91
2023-05-05T21:03:13.717Z,53.04
2023-05-05T21:08:13.585Z,53.26
2023-05-05T21:13:13.556Z,53.39
2023-05-05T21:18:13.473Z,53.38
2023-05-05T21:23:13.386Z,53.40
2023-05-05T21:28:13.319Z,53.44
2023-05-05T21:33:13.305Z,53.54
2023-05-05T21:38:13.200Z,53.67
2023-05-05T21:43:13.200Z,53.73
2023-05-05T21:48:13.101Z,53.84
2023-05-05T21:53:13.001Z,53.99
2023-05-05T21:58:12.941Z,54.08
2023-05-05T22:03:12.925Z,54.24
2023-05-05T22:08:12.856Z,54.47
2023-05-05T22:13:12.844Z,54.63
2023-05-05T22:18:12.680Z,54.78
2023-05-05T22:23:12.600Z,54.92
2023-05-05T22:28:12.533Z,55.02
2023-05-05T22:33:12.459Z,55.09
2023-05-05T22:38:12.403Z,55.21
2023-05-05T22:43:12.334Z,55.33
2023-05-05T22:48:12.248Z,55.48
2023-05-05T22:53:12.211Z,55.58
2023-05-05T22:58:12.124Z,55.65
2023-05-05T23:03:12.080Z,55.70
2023-05-05T23:08:11.993Z,55.76
2023-05-05T23:13:11.918Z,55.84
2023-05-05T23:18:11.879Z,56.01
2023-05-05T23:23:11.772Z,56.07
2023-05-05T23:28:11.753Z,56.09
2023-05-05T23:33:11.667Z,56.15
2023-05-05T23:38:11.610Z,56.25
2023-05-05T23:43:11.529Z,56.35
2023-05-05T23:48:11.550Z,56.38
2023-05-05T23:53:11.393Z,56.50
2023-05-05T23:58:11.350Z,56.60
